航空気象通報

ウインドサーファーのための航空気象通報による風予報です。

1/31-2/1の航空気象通報(国内、海外)

2008年01月31日 22時14分53秒 | TAF
羽田空港
TAF RJTT 310853Z 311812 34012KT 9999 FEW030
日本時間1日03-21時:340度から12ノットの風


那覇空港
TAF ROAH 310851Z 311812 03012KT 9999 FEW020 SCT025 BKN045
日本時間1日03-21時:030度から12ノットの風


マウイのカフルイ空港
PHOG 311121Z 311212 03010KT P6SM VCSH FEW050 SCT090
FM2000 05017KT P6SM SCT050
ハワイ時間31日02-10時:030度から10ノットの風
10時-1日02時:050度から17ノットの風


サイパン空港
PGSN 311120Z 311212 08011KT P6SM VCSH FEW020
マリアナ時間31日22時-1日22時:080度から11ノットの風

コメント
この記事をはてなブックマークに追加

1/30-31の航空気象通報(国内、海外)

2008年01月30日 22時49分13秒 | TAF
羽田空港
TAF RJTT 300840Z 301812 35016KT 9999 FEW030
TEMPO 1824 35020G30KT
日本時間31日03-21時:350度から16ノットの風
但し、03-09時:350度から20ノット、突風30ノット


那覇空港
TAF ROAH 300840Z 301812 02014KT 9999 FEW015 BKN040
日本時間31日03-21時:020度から14ノットの風


マウイのカフルイ空港
PHOG 301125Z 301212 04012KT P6SM VCSH FEW025 SCT050
FM2000 05015G25KT P6SM SCT025 BKN040
FM0600 04012KT P6SM SCT025 BKN040
ハワイ時間30日02-10時:040度から12ノットの風

10-20時:050度から15ノット、突風25ノット
20時-31日02時:040度から12ノットの風


サイパン空港
PGSN 301120Z 301212 07012G22KT P6SM VCSH SCT020 SCT050
マリアナ時間30日22時-31日22時:070度から12ノット、突風22ノット

コメント
この記事をはてなブックマークに追加

1/29-30の航空気象通報(国内、海外)

2008年01月29日 22時59分09秒 | TAF
羽田空港
TAF RJTT 290845Z 291812 34008KT 9999 FEW030 SCT060
BECMG 0306 12008KT
BECMG 0912 22012KT
日本時間30日03-12時:340度から8ノットの風
12-15時:風が変化
15-18時:120度から8ノットの風
18-21時:風が変化
21時:220度から12ノットの風


那覇空港
TAF ROAH 290845Z 291812 36012KT 9999 FEW015 SCT040
日本時間30日03-21時:360度から12ノットの風


マウイのカフルイ空港
PHOG 291126Z 291212 05011KT P6SM VCSH SCT035 SCT050
FM2000 05018G27KT P6SM SCT035 BKN050
FM0600 05012KT P6SM SCT035 SCT050
ハワイ時間29日02-10時:050度から11ノットの風
10-20時:050度から18ノット、突風27ノット
20時-30日02時:050度から12ノットの風


サイパン空港
PGSN 291130Z 291212 07011KT P6SM VCSH FEW025
マリアナ時間29日22時-30日22時:070度から11ノットの風

コメント
この記事をはてなブックマークに追加

1/28-29の航空気象通報(国内、海外)

2008年01月28日 23時33分25秒 | TAF
羽田空港
TAF RJTT 280843Z 281812 36010KT 9000 FEW015 BKN030
TEMPO 1821 3000 -RASN BR FEW005 BKN008 BKN012
TEMPO 2124 4000 -RA BR
日本時間29日03-21時:360度から10ノットの風

但し、03-09時:一時、

那覇空港
TAF ROAH 280841Z 281812 02006KT 9999 SCT015 BKN045
日本時間29日03-21時:020度から6ノットの風


マウイのカフルイ空港
PHOG 281135Z 281212 07012KT P6SM VCSH SCT035 SCT050
FM1600 05013G20KT P6SM SCT050
FM2000 05018G27KT P6SM SCT030 SCT050
FM0700 05010KT P6SM SCT030 SCT060
ハワイ時間28日02-06時:070度から12ノットの風
06-10時:050度から13ノット、突風20ノット
10-21時:050度から18ノット、突風27ノット
21時-29日02時:050度から10ノットの風


サイパン空港
PGSN 281120Z 281212 06009G15KT P6SM VCSH SCT035
マリアナ時間28日22時-29日22時:060度から9ノット、突風15ノット

コメント
この記事をはてなブックマークに追加

1/27-28の航空気象通報(国内、海外)

2008年01月27日 19時20分50秒 | TAF
羽田空港
TAF RJTT 270851Z 271812 36010KT 9999 FEW030
BECMG 0306 12006KT
日本時間28日03-12時:360度から10ノットの風
12-15時:風が変化
15-21時:120度から6ノットの風


那覇空港
TAF ROAH 270841Z 271812 36008KT 9999 FEW015 SCT030
日本時間28日03-21時:360度から8ノットの風


マウイのカフルイ空港
PHOG 271133Z 271212 04012KT P6SM VCSH FEW030 BKN045
FM1800 05012G18KT P6SM SCT050
FM2100 05018G25KT P6SM SCT050
FM0400 05012G20KT P6SM SCT050
FM0700 05012KT P6SM SCT050
ハワイ時間27日02-08時:040度から12ノットの風

08-11時:050度から12ノット、突風18ノット
11-18時:050度から18ノット、突風25ノット
18-21時:050度から12ノット、突風20ノット
21時-28日02時:050度から12ノットの風


サイパン空港
PGSN 271120Z 271212 05010G18KT P6SM VCSH SCT025 SCT050
マリアナ時間27日22時-28日22時:050度から10ノット、突風18ノット

コメント
この記事をはてなブックマークに追加